createdAt,value
2023-04-16T00:01:56.578Z,101790.16
2023-04-16T00:04:24.391Z,101789.38
2023-04-16T00:06:52.011Z,101792.63
2023-04-16T00:09:21.240Z,101791.28
2023-04-16T00:11:48.811Z,101796.44
2023-04-16T00:14:16.425Z,101805.84
2023-04-16T00:16:44.229Z,101794.78
2023-04-16T00:19:13.195Z,101797.78
2023-04-16T00:21:40.571Z,101800.50
2023-04-16T00:24:08.249Z,101783.22
2023-04-16T00:26:37.185Z,101791.31
2023-04-16T00:29:04.626Z,101792.94
2023-04-16T00:31:32.621Z,101791.06
2023-04-16T00:34:00.725Z,101790.53
2023-04-16T00:36:29.040Z,101793.50
2023-04-16T00:38:57.416Z,101787.03
2023-04-16T00:41:25.045Z,101785.94
2023-04-16T00:43:54.229Z,101786.22
2023-04-16T00:46:23.464Z,101789.75
2023-04-16T00:48:52.507Z,101795.41
2023-04-16T00:51:21.360Z,101795.69
2023-04-16T00:53:48.806Z,101801.06
2023-04-16T00:56:17.698Z,101798.38
2023-04-16T00:58:45.607Z,101798.34
2023-04-16T01:01:15.144Z,101788.63
2023-04-16T01:03:45.629Z,101792.94
2023-04-16T01:06:13.800Z,101798.06
2023-04-16T01:08:41.748Z,101794.59
2023-04-16T01:11:10.774Z,101808.88
2023-04-16T01:13:39.570Z,101804.25
2023-04-16T01:16:08.056Z,101811.00
2023-04-16T01:18:37.370Z,101795.09
2023-04-16T01:21:06.793Z,101800.25
2023-04-16T01:23:34.430Z,101799.44
2023-04-16T01:26:02.146Z,101812.97
2023-04-16T01:28:29.772Z,101819.19
2023-04-16T01:31:00.496Z,101824.56
2023-04-16T01:33:28.147Z,101820.75
2023-04-16T01:35:55.813Z,101815.91
2023-04-16T01:38:24.783Z,101824.78
2023-04-16T01:40:56.239Z,101823.72
2023-04-16T01:43:23.897Z,101832.34
2023-04-16T01:45:51.506Z,101833.69
2023-04-16T01:48:19.449Z,101833.97
2023-04-16T01:50:47.239Z,101836.66
2023-04-16T01:53:14.859Z,101830.72
2023-04-16T01:55:43.824Z,101837.75
2023-04-16T01:58:13.739Z,101840.97
2023-04-16T02:00:41.370Z,101839.66
2023-04-16T02:03:09.235Z,101840.69
2023-04-16T02:05:36.893Z,101859.06
2023-04-16T02:08:07.233Z,101845.00
2023-04-16T02:10:34.872Z,101849.59
2023-04-16T02:13:03.837Z,101847.19
2023-04-16T02:15:31.322Z,101843.66
2023-04-16T02:17:59.062Z,101839.63
2023-04-16T02:20:26.688Z,101849.91
2023-04-16T02:22:54.319Z,101855.59
2023-04-16T02:25:22.234Z,101856.16
2023-04-16T02:27:49.802Z,101854.25
2023-04-16T02:30:18.976Z,101845.34
2023-04-16T02:32:46.705Z,101849.94
2023-04-16T02:35:14.429Z,101855.03
2023-04-16T02:37:42.202Z,101851.28
2023-04-16T02:40:11.149Z,101855.84
2023-04-16T02:42:38.558Z,101850.44
2023-04-16T02:45:06.706Z,101853.44
2023-04-16T02:47:35.972Z,101848.81
2023-04-16T02:50:03.793Z,101854.00
2023-04-16T02:52:32.274Z,101845.59
2023-04-16T02:55:03.959Z,101857.50
2023-04-16T02:57:31.550Z,101855.28
2023-04-16T02:59:59.377Z,101856.38
2023-04-16T03:02:27.252Z,101868.00
2023-04-16T03:04:56.369Z,101865.28
2023-04-16T03:07:24.218Z,101865.28
2023-04-16T03:09:51.805Z,101862.88
2023-04-16T03:12:19.416Z,101873.16
2023-04-16T03:14:47.058Z,101870.16
2023-04-16T03:17:14.737Z,101871.78
2023-04-16T03:19:42.356Z,101872.59
2023-04-16T03:22:11.327Z,101875.53
2023-04-16T03:24:39.139Z,101870.69
2023-04-16T03:27:06.772Z,101873.41
2023-04-16T03:29:34.409Z,101851.28
2023-04-16T03:32:02.005Z,101875.28
2023-04-16T03:34:29.596Z,101879.59
2023-04-16T03:36:57.160Z,101877.47
2023-04-16T03:39:26.236Z,101873.41
2023-04-16T03:41:53.877Z,101872.84
2023-04-16T03:44:21.691Z,101876.09
2023-04-16T03:46:49.344Z,101877.47
2023-04-16T03:49:17.006Z,101867.47
2023-04-16T03:51:44.620Z,101880.44
2023-04-16T03:54:12.269Z,101873.94
2023-04-16T03:56:42.891Z,101875.56
2023-04-16T03:59:10.856Z,101871.81
2023-04-16T04:01:38.695Z,101876.41
2023-04-16T04:04:06.811Z,101878.00
2023-04-16T04:06:34.522Z,101877.22
2023-04-16T04:09:02.212Z,101866.94
2023-04-16T04:11:29.819Z,101872.34
2023-04-16T04:13:58.805Z,101881.50
2023-04-16T04:16:26.505Z,101876.09
2023-04-16T04:18:55.285Z,101873.13
2023-04-16T04:21:22.915Z,101882.03
2023-04-16T04:23:50.556Z,101889.88
2023-04-16T04:26:18.191Z,101891.75
2023-04-16T04:28:47.214Z,101891.78
2023-04-16T04:31:16.481Z,101893.13
2023-04-16T04:33:44.146Z,101904.22
2023-04-16T04:36:11.814Z,101897.47
2023-04-16T04:38:39.480Z,101888.53
2023-04-16T04:41:07.129Z,101890.97
2023-04-16T04:43:34.798Z,101906.66
2023-04-16T04:46:02.448Z,101906.66
2023-04-16T04:48:31.455Z,101902.06
2023-04-16T04:50:59.129Z,101907.19
2023-04-16T04:53:26.756Z,101899.91
2023-04-16T04:55:57.583Z,101904.78
2023-04-16T04:58:32.985Z,101909.09
2023-04-16T05:01:04.691Z,101914.22
2023-04-16T05:03:33.838Z,101911.25
2023-04-16T05:06:01.721Z,101910.16
2023-04-16T05:08:29.466Z,101918.00
2023-04-16T05:10:57.083Z,101919.63
2023-04-16T05:13:32.503Z,101924.50
2023-04-16T05:16:00.800Z,101909.34
2023-04-16T05:18:28.462Z,101918.53
2023-04-16T05:20:57.430Z,101923.13
2023-04-16T05:23:25.015Z,101917.66
2023-04-16T05:25:52.678Z,101922.56
2023-04-16T05:28:20.296Z,101924.19
2023-04-16T05:30:48.018Z,101928.53
2023-04-16T05:33:15.676Z,101939.06
2023-04-16T05:35:43.269Z,101931.78
2023-04-16T05:38:13.296Z,101941.50
2023-04-16T05:40:40.969Z,101953.13
2023-04-16T05:43:08.565Z,101956.09
2023-04-16T05:45:40.789Z,101957.97
2023-04-16T05:48:09.029Z,101966.38
2023-04-16T05:50:36.772Z,101958.81
2023-04-16T05:53:06.926Z,101961.50
2023-04-16T05:55:37.026Z,101966.66
2023-04-16T05:58:05.084Z,101969.06
2023-04-16T06:00:32.760Z,101958.25
2023-04-16T06:03:00.509Z,101970.13
2023-04-16T06:05:28.259Z,101969.63
2023-04-16T06:07:56.224Z,101974.75
2023-04-16T06:10:23.849Z,101976.91
2023-04-16T06:13:02.172Z,101971.50
2023-04-16T06:15:30.080Z,101965.00
2023-04-16T06:17:59.441Z,101973.94
2023-04-16T06:20:28.548Z,101975.53
2023-04-16T06:22:56.617Z,101977.72
2023-04-16T06:25:24.213Z,101969.59
2023-04-16T06:27:53.224Z,101959.84
2023-04-16T06:30:20.897Z,101977.44
2023-04-16T06:32:48.599Z,101977.41
2023-04-16T06:35:16.404Z,101967.16
2023-04-16T06:37:44.005Z,101986.88
2023-04-16T06:40:12.439Z,101987.44
2023-04-16T06:42:42.324Z,101997.97
2023-04-16T06:45:13.408Z,101999.31
2023-04-16T06:47:41.083Z,101996.91
2023-04-16T06:50:09.328Z,101997.47
2023-04-16T06:52:37.026Z,102003.94
2023-04-16T06:55:05.114Z,101997.72
2023-04-16T06:57:32.871Z,102005.56
2023-04-16T07:00:00.510Z,101996.66
2023-04-16T07:02:29.702Z,102005.03
2023-04-16T07:04:57.579Z,102017.72
2023-04-16T07:07:25.322Z,102002.31
2023-04-16T07:09:53.070Z,102013.94
2023-04-16T07:12:22.623Z,102024.22
2023-04-16T07:14:50.660Z,102023.94
2023-04-16T07:17:18.261Z,102022.84
2023-04-16T07:19:47.574Z,102019.34
2023-04-16T07:22:15.796Z,102024.19
2023-04-16T07:24:43.809Z,102023.13
2023-04-16T07:27:11.487Z,102019.88
2023-04-16T07:29:39.107Z,102022.03
2023-04-16T07:32:06.887Z,102029.06
2023-04-16T07:34:37.698Z,102023.09
2023-04-16T07:37:40.063Z,102036.91
2023-04-16T07:40:09.221Z,102032.28
2023-04-16T07:42:36.877Z,102029.00
2023-04-16T07:45:05.262Z,102027.13
2023-04-16T07:47:32.851Z,102033.91
2023-04-16T07:50:00.455Z,102032.28
2023-04-16T07:52:28.023Z,102036.09
2023-04-16T07:54:56.986Z,102046.06
2023-04-16T07:57:24.583Z,102039.59
2023-04-16T07:59:52.501Z,102046.38
2023-04-16T08:02:20.444Z,102047.72
2023-04-16T08:04:48.383Z,102053.13
2023-04-16T08:07:16.190Z,102044.75
2023-04-16T08:09:49.462Z,102052.84
2023-04-16T08:12:18.602Z,102060.97
2023-04-16T08:14:46.782Z,102057.44
2023-04-16T08:17:14.475Z,102060.72
2023-04-16T08:19:42.824Z,102058.78
2023-04-16T08:22:10.415Z,102062.81
2023-04-16T08:24:37.966Z,102046.88
2023-04-16T08:27:17.879Z,102069.63
2023-04-16T08:29:47.993Z,102060.69
2023-04-16T08:32:15.867Z,102066.91
2023-04-16T08:34:43.828Z,102075.56
2023-04-16T08:37:11.492Z,102076.13
2023-04-16T08:39:39.063Z,102078.81
2023-04-16T08:42:07.268Z,102078.28
2023-04-16T08:44:36.165Z,102078.00
2023-04-16T08:47:05.011Z,102089.06
2023-04-16T08:49:35.083Z,102093.41
2023-04-16T08:52:07.205Z,102092.31
2023-04-16T08:54:40.564Z,102086.38
2023-04-16T08:57:11.676Z,102080.44
2023-04-16T08:59:39.673Z,102088.28
2023-04-16T09:02:09.947Z,102082.31
2023-04-16T09:04:37.948Z,102080.69
2023-04-16T09:07:06.014Z,102087.75
2023-04-16T09:09:34.947Z,102093.94
2023-04-16T09:12:02.677Z,102092.88
2023-04-16T09:14:30.358Z,102078.53
2023-04-16T09:17:03.666Z,102086.34
2023-04-16T09:19:32.755Z,102098.25
2023-04-16T09:22:00.423Z,102102.03
2023-04-16T09:24:28.554Z,102102.00
2023-04-16T09:26:56.389Z,102094.97
2023-04-16T09:29:37.309Z,102103.66
2023-04-16T09:32:05.762Z,102110.41
2023-04-16T09:34:36.002Z,102111.22
2023-04-16T09:37:16.671Z,102092.28
2023-04-16T09:39:44.469Z,102113.06
2023-04-16T09:42:12.437Z,102112.00
2023-04-16T09:44:40.229Z,102118.47
2023-04-16T09:47:08.205Z,102115.72
2023-04-16T09:49:42.344Z,102126.84
2023-04-16T09:52:14.490Z,102121.72
2023-04-16T09:54:47.546Z,102126.59
2023-04-16T09:57:15.894Z,102134.19
2023-04-16T09:59:43.486Z,102132.84
2023-04-16T10:02:14.522Z,102125.00
2023-04-16T10:04:51.939Z,102132.84
2023-04-16T10:07:20.158Z,102133.63
2023-04-16T10:09:49.582Z,102142.28
2023-04-16T10:12:17.407Z,102140.41
2023-04-16T10:14:45.154Z,102142.00
2023-04-16T10:17:12.923Z,102149.03
2023-04-16T10:19:40.828Z,102138.25
2023-04-16T10:22:13.739Z,102143.69
2023-04-16T10:24:42.509Z,102143.09
2023-04-16T10:27:10.675Z,102144.47
2023-04-16T10:29:38.529Z,102144.75
2023-04-16T10:32:07.649Z,102150.16
2023-04-16T10:34:36.548Z,102140.97
2023-04-16T10:37:15.336Z,102152.59
2023-04-16T10:39:42.970Z,102152.59
2023-04-16T10:42:11.772Z,102162.88
2023-04-16T10:44:43.512Z,102158.81
2023-04-16T10:47:13.583Z,102160.44
2023-04-16T10:49:42.331Z,102161.50
2023-04-16T10:52:17.635Z,102152.31
2023-04-16T10:54:45.357Z,102159.09
2023-04-16T10:57:17.707Z,102166.41
2023-04-16T10:59:46.024Z,102154.75
2023-04-16T11:02:15.182Z,102161.78
2023-04-16T11:04:45.929Z,102170.69
2023-04-16T11:07:19.805Z,102159.09
2023-04-16T11:10:04.754Z,102158.81
2023-04-16T11:12:35.848Z,102167.47
2023-04-16T11:15:04.581Z,102178.84
2023-04-16T11:17:34.618Z,102154.72
2023-04-16T11:20:02.473Z,102173.41
2023-04-16T11:22:31.910Z,102171.47
2023-04-16T11:24:59.541Z,102173.66
2023-04-16T11:27:27.303Z,102174.47
2023-04-16T11:30:19.819Z,102171.47
2023-04-16T11:32:47.501Z,102175.00
2023-04-16T11:35:16.662Z,102180.97
2023-04-16T11:37:46.284Z,102180.16
2023-04-16T11:40:14.198Z,102172.34
2023-04-16T11:42:43.453Z,102181.81
2023-04-16T11:45:12.712Z,102163.97
2023-04-16T11:47:44.682Z,102184.25
2023-04-16T11:50:22.435Z,102197.78
2023-04-16T11:52:52.472Z,102177.69
2023-04-16T11:55:20.652Z,102197.72
2023-04-16T11:57:48.409Z,102187.19
2023-04-16T12:00:16.619Z,102195.09
2023-04-16T12:02:46.081Z,102194.50
2023-04-16T12:05:31.319Z,102198.84
2023-04-16T12:08:01.774Z,102204.25
2023-04-16T12:10:29.817Z,102195.63
2023-04-16T12:13:11.417Z,102205.34
2023-04-16T12:15:46.984Z,102207.50
2023-04-16T12:18:14.984Z,102204.25
2023-04-16T12:20:43.243Z,102207.50
2023-04-16T12:23:13.664Z,102211.31
2023-04-16T12:25:44.045Z,102216.75
2023-04-16T12:28:12.343Z,102222.72
2023-04-16T12:30:50.867Z,102225.94
2023-04-16T12:33:21.092Z,102211.06
2023-04-16T12:35:48.708Z,102208.31
2023-04-16T12:38:17.945Z,102215.38
2023-04-16T12:40:46.356Z,102220.56
2023-04-16T12:43:14.360Z,102213.78
2023-04-16T12:45:42.454Z,102211.63
2023-04-16T12:48:10.469Z,102212.94
2023-04-16T12:50:39.566Z,102212.09
2023-04-16T12:53:07.321Z,102210.22
2023-04-16T12:55:36.682Z,102210.50
2023-04-16T12:58:04.418Z,102208.56
2023-04-16T13:00:32.707Z,102212.38
2023-04-16T13:03:00.405Z,102201.84
2023-04-16T13:05:28.198Z,102204.03
2023-04-16T13:07:57.991Z,102220.00
2023-04-16T13:10:27.725Z,102212.69
2023-04-16T13:12:56.874Z,102214.59
2023-04-16T13:15:24.514Z,102219.47
2023-04-16T13:17:52.272Z,102202.16
2023-04-16T13:20:20.091Z,102217.84
2023-04-16T13:22:48.501Z,102215.94
2023-04-16T13:25:16.220Z,102201.59
2023-04-16T13:27:48.712Z,102216.78
2023-04-16T13:30:18.009Z,102220.28
2023-04-16T13:32:50.321Z,102207.03
2023-04-16T13:44:41.608Z,102232.22
2023-04-16T13:47:18.473Z,102170.78
2023-04-16T13:49:51.976Z,102228.13
2023-04-16T13:52:21.472Z,102201.06
2023-04-16T13:55:00.385Z,102211.06
2023-04-16T13:57:45.929Z,102222.94
2023-04-16T14:00:24.440Z,102214.25
2023-04-16T14:02:53.739Z,102222.34
2023-04-16T14:05:43.043Z,102222.03
2023-04-16T14:08:14.309Z,102213.19
2023-04-16T14:10:46.079Z,102144.22
2023-04-16T14:13:40.121Z,102204.81
2023-04-16T14:16:30.702Z,102145.28
2023-04-16T14:19:17.932Z,102199.38
2023-04-16T14:22:09.557Z,102224.78
2023-04-16T14:24:57.174Z,102201.50
2023-04-16T14:27:48.142Z,102177.50
2023-04-16T14:30:30.941Z,102224.78
2023-04-16T14:32:59.088Z,102158.25
2023-04-16T14:36:04.588Z,102152.59
2023-04-16T14:38:53.471Z,102217.50
2023-04-16T14:41:45.022Z,102226.41
2023-04-16T14:44:55.212Z,102227.25
2023-04-16T14:47:38.478Z,102208.63
2023-04-16T14:50:12.005Z,102184.56
2023-04-16T14:52:44.415Z,102157.75
2023-04-16T14:55:21.507Z,102177.22
2023-04-16T14:57:54.182Z,102204.25
2023-04-16T15:00:28.186Z,102191.31
2023-04-16T15:02:57.300Z,102179.63
2023-04-16T15:05:29.169Z,102178.53
2023-04-16T15:08:01.198Z,102206.66
2023-04-16T15:10:29.398Z,102213.72
2023-04-16T15:13:04.305Z,102232.91
2023-04-16T15:15:32.472Z,102229.09
2023-04-16T15:18:05.021Z,102238.31
2023-04-16T15:20:32.846Z,102245.38
2023-04-16T15:23:02.131Z,102224.50
2023-04-16T15:25:57.658Z,102243.47
2023-04-16T15:28:31.115Z,102244.78
2023-04-16T15:31:22.383Z,102208.63
2023-04-16T15:34:14.099Z,102220.47
2023-04-16T15:36:50.740Z,102245.38
2023-04-16T15:39:22.225Z,102256.19
2023-04-16T15:42:01.271Z,102249.63
2023-04-16T15:44:31.066Z,102248.88
2023-04-16T15:47:01.422Z,102255.66
2023-04-16T15:49:29.123Z,102249.72
2023-04-16T15:51:56.963Z,102256.75
2023-04-16T15:54:28.982Z,102252.16
2023-04-16T15:57:00.488Z,102248.09
2023-04-16T15:59:28.240Z,102256.75
2023-04-16T16:01:56.612Z,102241.06
2023-04-16T16:04:26.499Z,102257.28
2023-04-16T16:06:54.348Z,102251.34
2023-04-16T16:09:26.230Z,102257.78
2023-04-16T16:11:55.586Z,102264.78
2023-04-16T16:14:25.143Z,102262.06
2023-04-16T16:16:52.901Z,102264.78
2023-04-16T16:19:20.573Z,102267.25
2023-04-16T16:21:48.403Z,102269.72
2023-04-16T16:24:16.137Z,102268.91
2023-04-16T16:26:43.962Z,102265.44
2023-04-16T16:29:13.085Z,102270.59
2023-04-16T16:31:46.936Z,102263.28
2023-04-16T16:34:20.463Z,102264.88
2023-04-16T16:36:48.863Z,102270.84
2023-04-16T16:39:16.723Z,102265.97
2023-04-16T16:41:45.573Z,102261.88
2023-04-16T16:44:14.357Z,102270.00
2023-04-16T16:46:42.098Z,102265.41
2023-04-16T16:49:15.590Z,102260.53
2023-04-16T16:51:43.451Z,102262.72
2023-04-16T16:54:11.115Z,102258.63
2023-04-16T16:56:46.349Z,102252.94
2023-04-16T16:59:31.268Z,102268.66
2023-04-16T17:02:00.514Z,102274.31
2023-04-16T17:04:28.226Z,102271.34
2023-04-16T17:06:55.964Z,102265.94
2023-04-16T17:09:23.589Z,102269.75
2023-04-16T17:11:51.308Z,102275.72
2023-04-16T17:14:34.838Z,102278.75
2023-04-16T17:17:27.894Z,102281.97
2023-04-16T17:20:15.172Z,102288.22
2023-04-16T17:22:57.096Z,102266.03
2023-04-16T17:25:45.117Z,102300.41
2023-04-16T17:28:22.888Z,102265.78
2023-04-16T17:30:56.162Z,102263.56
2023-04-16T17:33:25.298Z,102290.66
2023-04-16T17:35:53.983Z,102280.13
2023-04-16T17:38:23.783Z,102297.44
2023-04-16T17:40:58.058Z,102299.63
2023-04-16T17:43:34.064Z,102296.34
2023-04-16T17:46:02.757Z,102317.22
2023-04-16T17:48:31.975Z,102298.53
2023-04-16T17:50:59.546Z,102315.06
2023-04-16T17:53:27.190Z,102318.31
2023-04-16T17:55:56.957Z,102321.81
2023-04-16T17:58:26.291Z,102325.38
2023-04-16T18:00:56.655Z,102326.72
2023-04-16T18:03:24.477Z,102324.31
2023-04-16T18:05:56.550Z,102320.50
2023-04-16T18:08:24.875Z,102327.00
2023-04-16T18:10:54.790Z,102334.88
2023-04-16T18:13:22.441Z,102332.16
2023-04-16T18:15:50.247Z,102337.59
2023-04-16T18:18:18.529Z,102322.97
2023-04-16T18:20:48.056Z,102338.13
2023-04-16T18:23:17.074Z,102344.38
2023-04-16T18:25:44.758Z,102340.84
2023-04-16T18:28:14.000Z,102349.78
2023-04-16T18:30:42.702Z,102345.69
2023-04-16T18:33:37.444Z,102359.78
2023-04-16T18:36:02.475Z,102363.06
2023-04-16T18:38:31.579Z,102361.69
2023-04-16T18:40:59.210Z,102363.88
2023-04-16T18:43:26.987Z,102360.59
2023-04-16T18:45:54.638Z,102364.13
2023-04-16T18:48:22.717Z,102365.75
2023-04-16T18:50:50.398Z,102370.66
2023-04-16T18:53:17.983Z,102367.66
2023-04-16T18:55:47.476Z,102386.91
2023-04-16T18:58:15.101Z,102371.72
2023-04-16T19:00:43.072Z,102384.19
2023-04-16T19:03:10.791Z,102391.22
2023-04-16T19:05:38.831Z,102379.56
2023-04-16T19:08:07.435Z,102395.28
2023-04-16T19:10:44.185Z,102401.00
2023-04-16T19:13:13.537Z,102394.47
2023-04-16T19:15:41.201Z,102400.69
2023-04-16T19:18:11.910Z,102402.06
2023-04-16T19:20:39.613Z,102405.84
2023-04-16T19:23:09.024Z,102395.28
2023-04-16T19:25:37.353Z,102405.06
2023-04-16T19:28:05.201Z,102413.19
2023-04-16T19:30:34.130Z,102407.47
2023-04-16T19:33:01.824Z,102400.44
2023-04-16T19:35:30.091Z,102412.34
2023-04-16T19:37:58.517Z,102409.91
2023-04-16T19:40:26.209Z,102420.47
2023-04-16T19:42:53.766Z,102418.31
2023-04-16T19:45:25.664Z,102429.13
2023-04-16T19:47:54.891Z,102426.16
2023-04-16T19:50:23.658Z,102418.84
2023-04-16T19:52:51.536Z,102426.16
2023-04-16T19:55:19.662Z,102426.94
2023-04-16T19:57:48.795Z,102419.59
2023-04-16T20:00:23.254Z,102419.34
2023-04-16T20:02:50.948Z,102420.97
2023-04-16T20:05:19.939Z,102426.13
2023-04-16T20:07:47.563Z,102425.84
2023-04-16T20:10:15.268Z,102424.22
2023-04-16T20:12:42.917Z,102414.50
2023-04-16T20:15:11.081Z,102420.44
2023-04-16T20:17:38.715Z,102430.47
2023-04-16T20:20:10.189Z,102423.41
2023-04-16T20:22:39.284Z,102422.56
2023-04-16T20:25:08.890Z,102416.34
2023-04-16T20:27:36.531Z,102420.66
2023-04-16T20:30:05.929Z,102438.81
2023-04-16T20:32:33.717Z,102438.00
2023-04-16T20:35:02.055Z,102434.50
2023-04-16T20:37:29.921Z,102438.28
2023-04-16T20:39:58.886Z,102443.13
2023-04-16T20:42:27.618Z,102439.34
2023-04-16T20:44:56.836Z,102438.00
2023-04-16T20:47:24.535Z,102437.22
2023-04-16T20:49:52.540Z,102444.03
2023-04-16T20:52:20.198Z,102446.22
2023-04-16T20:54:48.187Z,102442.69
2023-04-16T20:57:17.096Z,102440.28
2023-04-16T20:59:54.789Z,102449.44
2023-04-16T21:02:23.626Z,102443.44
2023-04-16T21:04:51.438Z,102443.44
2023-04-16T21:07:19.096Z,102443.16
2023-04-16T21:09:46.706Z,102448.88
2023-04-16T21:12:14.300Z,102445.91
2023-04-16T21:14:43.484Z,102440.19
2023-04-16T21:17:11.050Z,102448.63
2023-04-16T21:19:40.065Z,102436.41
2023-04-16T21:22:07.825Z,102436.69
2023-04-16T21:24:35.493Z,102451.28
2023-04-16T21:27:03.264Z,102443.16
2023-04-16T21:29:30.946Z,102454.00
2023-04-16T21:31:59.969Z,102451.56
2023-04-16T21:34:27.660Z,102454.53
2023-04-16T21:36:55.235Z,102448.28
2023-04-16T21:39:24.465Z,102455.06
2023-04-16T21:41:52.042Z,102444.75
2023-04-16T21:44:27.782Z,102447.78
2023-04-16T21:46:55.388Z,102452.38
2023-04-16T21:49:24.602Z,102449.38
2023-04-16T21:51:58.902Z,102444.22
2023-04-16T21:54:26.548Z,102452.06
2023-04-16T21:56:54.183Z,102452.34
2023-04-16T21:59:21.952Z,102447.47
2023-04-16T22:01:49.595Z,102449.09
2023-04-16T22:04:17.783Z,102445.28
2023-04-16T22:06:46.872Z,102449.63
2023-04-16T22:09:15.455Z,102454.50
2023-04-16T22:11:46.414Z,102439.31
2023-04-16T22:14:14.539Z,102449.38
2023-04-16T22:16:42.216Z,102452.34
2023-04-16T22:19:10.070Z,102441.19
2023-04-16T22:21:37.828Z,102438.47
2023-04-16T22:24:07.677Z,102453.13
2023-04-16T22:26:35.337Z,102454.47
2023-04-16T22:29:03.054Z,102453.13
2023-04-16T22:31:30.904Z,102453.91
2023-04-16T22:33:58.501Z,102463.09
2023-04-16T22:36:26.388Z,102465.81
2023-04-16T22:38:54.068Z,102464.22
2023-04-16T22:41:23.763Z,102467.19
2023-04-16T22:43:52.456Z,102463.69
2023-04-16T22:46:21.041Z,102467.50
2023-04-16T22:48:48.748Z,102462.06
2023-04-16T22:51:16.432Z,102477.78
2023-04-16T22:53:44.036Z,102473.16
2023-04-16T22:56:11.750Z,102455.25
2023-04-16T22:58:40.818Z,102462.56
2023-04-16T23:01:08.585Z,102457.69
2023-04-16T23:03:36.464Z,102468.78
2023-04-16T23:06:04.381Z,102460.66
2023-04-16T23:08:32.046Z,102467.41
2023-04-16T23:10:59.739Z,102460.66
2023-04-16T23:13:27.376Z,102463.09
2023-04-16T23:15:56.460Z,102463.63
2023-04-16T23:18:24.391Z,102449.53
2023-04-16T23:20:52.643Z,102449.03
2023-04-16T23:23:20.353Z,102455.22
2023-04-16T23:25:48.061Z,102456.59
2023-04-16T23:28:15.701Z,102457.94
2023-04-16T23:30:43.313Z,102458.72
2023-04-16T23:33:12.363Z,102455.22
2023-04-16T23:35:40.057Z,102448.41
2023-04-16T23:38:07.743Z,102454.94
2023-04-16T23:40:35.427Z,102451.41
2023-04-16T23:43:03.049Z,102444.09
2023-04-16T23:45:30.685Z,102446.00
2023-04-16T23:47:58.349Z,102450.59
2023-04-16T23:50:27.471Z,102455.47
2023-04-16T23:52:55.234Z,102446.00
2023-04-16T23:55:22.966Z,102449.50
2023-04-16T23:57:50.605Z,102443.25
